Ben Arnold, Texas
Current Conditions -  °F | °C
As of 6:15 PM on Friday 24 Oct 2014 (Local Time) from KT35 Reporting Station
Clear Clear  
Wind Chill: 80°   Ceiling: Unl
Heat Index: 81°   Visibility: 10mi
Dew Point: 61°   Wind: 0mph
Humidity: 52%   Direction: NA
Pressure: 30.09"   Gusts: NA
Location:  30.9882°N, 97.103°W
Report Text: KT35 242315Z AUTO 00000KT 10SM CLR 27/16 A3009 RMK AO2 T02650160
Loading
Personal Weather Stations






























Interactive Weather Map
Tropical Storm Tracking
New forecast layout! Learn more

10-Day Weather Forecast

Advertisements
Track Severe Weather on mobile